ADDS METAR Data INFO
IDs: Format: Raw Decoded Include TAF

Data at: 0932 UTC 17 Oct 2017

KFWB 170915Z AUTO 00000KT 10SM CLR 07/07 A3030 RMK AO2
KFWB 170855Z AUTO 00000KT 10SM CLR 07/07 A3030 RMK AO2
KFWB 170835Z AUTO 00000KT 10SM CLR 07/07 A3030 RMK AO2
KFWB 170815Z AUTO 00000KT 10SM CLR 08/07 A3030 RMK AO2
KFWB 170755Z AUTO 00000KT 10SM CLR 07/06 A3030 RMK AO2
KFWB 170735Z AUTO 00000KT 10SM CLR 07/05 A3030 RMK AO2
KFWB 170715Z AUTO 00000KT 10SM CLR 07/05 A3030 RMK AO2
KFWB 170655Z AUTO 00000KT 10SM CLR 07/05 A3030 RMK AO2
KFWB 170635Z AUTO 00000KT 10SM CLR 07/05 A3030 RMK AO2
KFWB 170615Z AUTO 26005KT 10SM CLR 07/05 A3031 RMK AO2
KFWB 170555Z AUTO 00000KT 10SM CLR 08/05 A3030 RMK AO2
KFWB 170535Z AUTO 00000KT 10SM CLR 08/05 A3031 RMK AO2
KFWB 170515Z AUTO 00000KT 10SM CLR 08/05 A3031 RMK AO2
KFWB 170455Z AUTO 00000KT 10SM CLR 09/05 A3032 RMK AO2
KFWB 170435Z AUTO 00000KT 10SM CLR 09/05 A3031 RMK AO2
KFWB 170415Z AUTO 00000KT 10SM CLR 10/05 A3031 RMK AO2
KFWB 170355Z AUTO 00000KT 10SM CLR 10/05 A3031 RMK AO2
KFWB 170335Z AUTO 00000KT 10SM CLR 11/04 A3031 RMK AO2
KFWB 170315Z AUTO 00000KT 10SM CLR 11/04 A3031 RMK AO2
KFWB 170255Z AUTO 00000KT 10SM CLR 12/03 A3031 RMK AO2
KFWB 170235Z AUTO 00000KT 10SM CLR 12/03 A3031 RMK AO2
KFWB 170215Z AUTO 08003KT 10SM CLR 11/03 A3032 RMK AO2
KFWB 170155Z AUTO 00000KT 10SM CLR 11/03 A3032 RMK AO2
KFWB 170135Z AUTO 00000KT 10SM CLR 12/03 A3031 RMK AO2
KFWB 170115Z AUTO 00000KT 10SM CLR 12/04 A3031 RMK AO2
KFWB 170055Z AUTO 00000KT 10SM CLR 12/04 A3031 RMK AO2
KFWB 170035Z AUTO 00000KT 10SM CLR 13/04 A3030 RMK AO2
KFWB 170015Z AUTO 00000KT 10SM CLR 13/04 A3031 RMK AO2
KFWB 162355Z AUTO 00000KT 10SM CLR 14/04 A3030 RMK AO2
KFWB 162335Z AUTO 00000KT 10SM CLR 15/03 A3030 RMK AO2
KFWB 162315Z AUTO 00000KT 10SM CLR 17/03 A3030 RMK AO2
KFWB 162255Z AUTO 00000KT 10SM CLR 18/02 A3030 RMK AO2
KFWB 162235Z AUTO 21004KT 10SM CLR 18/02 A3030 RMK AO2
KFWB 162215Z AUTO 21004KT 10SM CLR 19/02 A3031 RMK AO2
KFWB 162155Z AUTO 18004KT 10SM CLR 19/02 A3031 RMK AO2
KFWB 162135Z AUTO 23003KT 10SM CLR 20/02 A3031 RMK AO2
KFWB 162115Z AUTO 23003KT 10SM CLR 20/01 A3031 RMK AO2
KFWB 162055Z AUTO 00000KT 10SM CLR 19/00 A3032 RMK AO2
KFWB 162035Z AUTO 36003KT 10SM CLR 19/00 A3033 RMK AO2
KFWB 162015Z AUTO 07005KT 10SM CLR 20/02 A3034 RMK AO2
KFWB 161955Z AUTO 02004KT 10SM CLR 19/01 A3034 RMK AO2
KFWB 161935Z AUTO 01005KT 10SM CLR 19/01 A3036 RMK AO2
KFWB 161915Z AUTO 36005KT 10SM CLR 19/02 A3037 RMK AO2
KFWB 161855Z AUTO 02004KT 10SM CLR 19/02 A3038 RMK AO2
KFWB 161835Z AUTO 31003KT 10SM CLR 19/02 A3039 RMK AO2
KFWB 161815Z AUTO 08003KT 10SM CLR 18/01 A3040 RMK AO2
KFWB 161755Z AUTO 09004KT 10SM CLR 18/02 A3041 RMK AO2
KFWB 161735Z AUTO 07007KT 10SM CLR 18/01 A3042 RMK AO2
KFWB 161715Z AUTO 12006KT 10SM CLR 18/01 A3043 RMK AO2
KFWB 161655Z AUTO 16003KT 10SM CLR 18/00 A3043 RMK AO2
KFWB 161635Z AUTO 05004KT 10SM CLR 17/00 A3044 RMK AO2
KFWB 161615Z AUTO 09005KT 10SM CLR 16/00 A3044 RMK AO2
KFWB 161555Z AUTO 07005KT 10SM CLR 15/00 A3044 RMK AO2
KFWB 161535Z AUTO 06008KT 10SM CLR 15/01 A3045 RMK AO2
KFWB 161515Z AUTO 14003KT 10SM CLR 15/02 A3044 RMK AO2
KFWB 161455Z AUTO 00000KT 10SM CLR 14/04 A3044 RMK AO2
KFWB 161435Z AUTO 00000KT 10SM CLR 12/05 A3044 RMK AO2
KFWB 161415Z AUTO 00000KT 10SM CLR 10/07 A3044 RMK AO2
KFWB 161335Z AUTO 00000KT 10SM CLR 07/05 A3043 RMK AO2
KFWB 161315Z AUTO 00000KT 10SM CLR 06/05 A3042 RMK AO2
KFWB 161255Z AUTO 00000KT 10SM CLR 05/05 A3042 RMK AO2
KFWB 161235Z AUTO 00000KT 10SM CLR 05/04 A3041 RMK AO2
KFWB 161215Z AUTO 00000KT 10SM CLR 04/04 A3041 RMK AO2
KFWB 161155Z AUTO 00000KT 10SM CLR 05/04 A3041 RMK AO2
KFWB 161135Z AUTO 00000KT 10SM CLR 05/04 A3041 RMK AO2
KFWB 161115Z AUTO 00000KT 10SM CLR 05/04 A3041 RMK AO2
KFWB 161055Z AUTO 00000KT 10SM CLR 06/04 A3040 RMK AO2
KFWB 161035Z AUTO 00000KT 10SM CLR 06/04 A3039 RMK AO2
KFWB 161015Z AUTO 00000KT 10SM CLR 06/04 A3039 RMK AO2
KFWB 160955Z AUTO 01004KT 10SM CLR 06/04 A3039 RMK AO2
KFWB 160935Z AUTO 02005KT 10SM CLR 06/04 A3039 RMK AO2
KFWB 160915Z AUTO 01004KT 10SM CLR 06/04 A3039 RMK AO2
KFWB 160855Z AUTO 01005KT 10SM CLR 07/04 A3039 RMK AO2
KFWB 160835Z AUTO 36005KT 10SM CLR 07/04 A3038 RMK AO2
KFWB 160815Z AUTO 36006KT 10SM CLR 07/05 A3038 RMK AO2
KFWB 160755Z AUTO 36005KT 10SM CLR 07/04 A3039 RMK AO2
KFWB 160735Z AUTO 01005KT 10SM CLR 07/04 A3039 RMK AO2
KFWB 160715Z AUTO 36006KT 10SM CLR 08/05 A3038 RMK AO2
KFWB 160655Z AUTO 36006KT 10SM CLR 08/05 A3038 RMK AO2
KFWB 160635Z AUTO 36005KT 10SM CLR 07/05 A3038 RMK AO2
KFWB 160615Z AUTO 36005KT 10SM CLR 07/05 A3038 RMK AO2
KFWB 160555Z AUTO 35004KT 10SM CLR 08/05 A3038 RMK AO2
KFWB 160535Z AUTO 36005KT 10SM CLR 08/05 A3038 RMK AO2
KFWB 160515Z AUTO 36004KT 10SM CLR 08/05 A3038 RMK AO2
KFWB 160455Z AUTO 36005KT 10SM CLR 08/05 A3038 RMK AO2
KFWB 160435Z AUTO 36005KT 10SM CLR 08/05 A3038 RMK AO2
KFWB 160415Z AUTO 01004KT 10SM CLR 09/05 A3038 RMK AO2
KFWB 160355Z AUTO 35004KT 10SM CLR 09/05 A3038 RMK AO2
KFWB 160335Z AUTO 00000KT 10SM CLR 09/05 A3037 RMK AO2
KFWB 160315Z AUTO 36003KT 10SM CLR 10/05 A3037 RMK AO2
KFWB 160255Z AUTO 00000KT 10SM CLR 10/05 A3036 RMK AO2
KFWB 160235Z AUTO 00000KT 10SM CLR 10/04 A3036 RMK AO2
KFWB 160215Z AUTO 00000KT 10SM CLR 10/04 A3036 RMK AO2
KFWB 160155Z AUTO 34004KT 10SM CLR 11/04 A3035 RMK AO2
KFWB 160135Z AUTO 34004KT 10SM CLR 11/05 A3034 RMK AO2
KFWB 160115Z AUTO 00000KT 10SM CLR 12/05 A3034 RMK AO2
KFWB 160055Z AUTO 32003KT 10SM CLR 12/05 A3033 RMK AO2
KFWB 160035Z AUTO 34004KT 10SM CLR 12/04 A3032 RMK AO2
KFWB 160015Z AUTO 32004KT 10SM CLR 13/04 A3032 RMK AO2
KFWB 152355Z AUTO 33006KT 10SM CLR 13/04 A3031 RMK AO2
KFWB 152335Z AUTO 33004KT 10SM CLR 14/04 A3031 RMK AO2
KFWB 152315Z AUTO 33007KT 10SM CLR 15/04 A3030 RMK AO2
KFWB 152255Z AUTO 34008KT 10SM CLR 15/05 A3030 RMK AO2
KFWB 152235Z AUTO 34008G16KT 10SM CLR 15/04 A3030 RMK AO2
KFWB 152215Z AUTO 33009G19KT 300V360 10SM CLR 16/05 A3029 RMK AO2
KFWB 152155Z AUTO 32010G16KT 10SM CLR 17/05 A3029 RMK AO2
KFWB 152135Z AUTO 36012G19KT 10SM CLR 17/05 A3028 RMK AO2